Time;durP1;ratioP1;P1;durP2;ratioP2;P2;SDS_P1;SDS_P2;PMS_P1;PMS_P2;Temp;Humidity;BMP_temperature;BMP_pressure;BME280_temperature;BME280_humidity;BME280_pressure;Samples;Min_cycle;Max_cycle;Signal;HPM_P1;HPM_P2
2022/06/13 00:01:02;;;;;;;6.00;5.40;;;15.00;99.90;;;;;;4941511;29;20027;-76
2022/06/13 00:03:29;;;;;;;10.23;5.40;;;15.00;99.90;;;;;;4958072;29;20078;-76
2022/06/13 00:05:54;;;;;;;7.22;5.63;;;15.00;99.90;;;;;;4940891;29;20023;-76
2022/06/13 00:08:20;;;;;;;5.15;4.75;;;14.90;99.90;;;;;;4940847;29;20471;-76
2022/06/13 00:10:45;;;;;;;8.80;5.15;;;14.90;99.90;;;;;;4940858;29;20035;-76
2022/06/13 00:13:11;;;;;;;5.75;5.20;;;14.90;99.90;;;;;;4940821;29;20428;-76
2022/06/13 00:15:37;;;;;;;4.88;4.43;;;14.90;99.90;;;;;;4940604;28;20137;-76
2022/06/13 00:18:03;;;;;;;7.18;5.80;;;14.90;99.90;;;;;;4940045;29;20549;-76
2022/06/13 00:20:28;;;;;;;5.20;4.45;;;14.80;99.90;;;;;;4957767;29;20042;-76
2022/06/13 00:22:54;;;;;;;5.30;4.45;;;14.80;99.90;;;;;;4957806;29;20027;-76
2022/06/13 00:25:20;;;;;;;4.85;4.45;;;14.80;99.90;;;;;;4957658;29;20110;-75
2022/06/13 00:27:45;;;;;;;5.45;4.95;;;14.80;99.90;;;;;;4940582;29;20122;-76
2022/06/13 00:30:11;;;;;;;5.15;4.72;;;14.80;99.90;;;;;;4957863;29;20034;-75
2022/06/13 00:32:37;;;;;;;8.13;5.15;;;14.70;99.90;;;;;;4957297;29;20027;-76
2022/06/13 00:35:04;;;;;;;7.18;4.60;;;14.70;99.90;;;;;;4957629;29;20364;-76
2022/06/13 00:37:30;;;;;;;7.70;5.05;;;14.60;99.90;;;;;;4957464;29;20449;-76
2022/06/13 00:39:56;;;;;;;5.38;4.80;;;14.60;99.90;;;;;;4940248;29;20041;-76
2022/06/13 00:42:24;;;;;;;5.07;4.53;;;14.60;99.90;;;;;;4957716;29;20027;-76
2022/06/13 00:45:10;;;;;;;5.90;5.07;;;14.50;99.90;;;;;;4957135;29;20062;-76
2022/06/13 00:47:38;;;;;;;5.40;4.72;;;14.40;99.90;;;;;;4957343;29;20035;-76
2022/06/13 00:50:07;;;;;;;6.35;5.18;;;14.40;99.90;;;;;;4957327;29;20063;-76
2022/06/13 00:52:47;;;;;;;5.27;4.80;;;14.40;99.90;;;;;;4957301;29;20391;-76
2022/06/13 00:55:18;;;;;;;8.05;5.05;;;14.30;99.90;;;;;;4940097;29;20035;-76
2022/06/13 00:57:43;;;;;;;5.97;5.18;;;14.30;99.90;;;;;;4940240;29;20369;-76
2022/06/13 01:00:12;;;;;;;7.03;5.47;;;14.20;99.90;;;;;;4939954;29;20041;-76
2022/06/13 01:02:42;;;;;;;5.65;5.15;;;14.20;99.90;;;;;;4957097;29;20028;-76
2022/06/13 01:05:09;;;;;;;7.35;4.93;;;14.20;99.90;;;;;;4957309;29;20074;-76
2022/06/13 01:07:36;;;;;;;7.22;5.35;;;14.20;99.90;;;;;;4956725;29;20383;-76
2022/06/13 01:12:47;;;;;;;7.55;5.18;;;14.10;99.90;;;;;;4957256;29;20042;-76
2022/06/13 01:15:53;;;;;;;8.05;5.07;;;14.10;99.90;;;;;;4939689;29;20032;-75
2022/06/13 01:18:37;;;;;;;7.18;5.00;;;14.10;99.90;;;;;;4917918;29;20407;-76
2022/06/13 01:21:12;;;;;;;8.77;5.35;;;14.00;99.90;;;;;;4939532;29;20043;-76
2022/06/13 01:24:12;;;;;;;8.68;5.32;;;13.90;99.90;;;;;;4957072;29;20048;-76
2022/06/13 01:26:53;;;;;;;6.45;5.13;;;13.90;99.90;;;;;;4956877;29;20498;-76
2022/06/13 01:29:56;;;;;;;6.05;5.22;;;13.90;99.90;;;;;;4956673;29;20038;-76
2022/06/13 01:32:40;;;;;;;6.57;5.22;;;13.80;99.90;;;;;;4862925;29;20045;-77
2022/06/13 01:35:29;;;;;;;8.73;4.78;;;13.80;99.90;;;;;;4932531;29;20195;-76
2022/06/13 01:38:15;;;;;;;9.90;5.07;;;13.80;99.90;;;;;;4956130;29;20035;-76
2022/06/13 01:40:43;;;;;;;5.38;4.75;;;13.80;99.90;;;;;;4956409;29;20035;-76
2022/06/13 01:43:16;;;;;;;7.07;5.38;;;13.80;99.90;;;;;;4956374;29;20031;-76
2022/06/13 01:46:04;;;;;;;6.28;5.40;;;13.70;99.90;;;;;;4939025;29;20027;-76
2022/06/13 01:48:48;;;;;;;7.05;5.50;;;13.70;99.90;;;;;;4939929;29;20129;-76
2022/06/13 01:51:19;;;;;;;9.73;5.47;;;13.60;99.90;;;;;;4939469;29;20027;-76
2022/06/13 01:54:03;;;;;;;6.35;5.32;;;13.60;99.90;;;;;;4956256;29;20454;-75
2022/06/13 01:56:59;;;;;;;9.95;5.55;;;13.70;99.90;;;;;;4956403;29;20031;-76
2022/06/13 01:59:34;;;;;;;10.20;5.45;;;13.60;99.90;;;;;;4955882;29;20035;-76
2022/06/13 02:02:13;;;;;;;5.88;5.38;;;13.60;99.90;;;;;;4956316;29;20110;-76
2022/06/13 02:04:53;;;;;;;6.75;5.10;;;13.60;99.90;;;;;;4956063;29;20035;-76
2022/06/13 02:07:25;;;;;;;6.40;5.32;;;13.60;99.90;;;;;;4956247;29;20118;-76
2022/06/13 02:09:59;;;;;;;7.05;5.10;;;13.50;99.90;;;;;;4956032;29;20033;-76
2022/06/13 02:12:28;;;;;;;5.68;4.88;;;13.60;99.90;;;;;;4956096;29;20027;-76
2022/06/13 02:15:02;;;;;;;6.07;5.10;;;13.50;99.90;;;;;;4955626;29;20396;-76
2022/06/13 02:17:35;;;;;;;5.88;5.28;;;13.50;99.90;;;;;;4938746;29;20093;-75
2022/06/13 02:20:31;;;;;;;5.57;4.82;;;13.50;99.90;;;;;;4955932;29;20038;-76
2022/06/13 02:23:00;;;;;;;6.45;4.82;;;13.50;99.90;;;;;;4954997;29;20043;-75
2022/06/13 02:25:35;;;;;;;5.63;4.28;;;13.40;99.90;;;;;;4955730;29;20071;-75
2022/06/13 02:28:09;;;;;;;9.68;5.22;;;13.40;99.90;;;;;;4955559;29;20031;-76
2022/06/13 02:30:43;;;;;;;6.93;4.68;;;13.40;99.90;;;;;;4955597;29;20031;-75
2022/06/13 02:33:18;;;;;;;5.93;4.72;;;13.30;99.90;;;;;;4939481;29;20047;-75
2022/06/13 02:35:56;;;;;;;8.75;4.78;;;13.30;99.90;;;;;;4955966;29;20106;-76
2022/06/13 02:38:32;;;;;;;7.05;4.70;;;13.30;99.90;;;;;;4938857;29;20039;-76
2022/06/13 02:41:02;;;;;;;6.50;4.63;;;13.30;99.90;;;;;;4958745;29;20041;-76
2022/06/13 02:43:41;;;;;;;7.20;5.18;;;13.20;99.90;;;;;;4942539;29;20083;-77
2022/06/13 02:46:38;;;;;;;6.07;5.07;;;13.30;99.90;;;;;;4942717;29;20023;-76
2022/06/13 02:49:37;;;;;;;6.35;5.05;;;13.20;99.90;;;;;;4955282;29;20051;-76
2022/06/13 02:52:14;;;;;;;10.02;5.10;;;13.30;99.90;;;;;;4955719;29;20078;-76
2022/06/13 02:54:48;;;;;;;5.47;4.68;;;13.30;99.90;;;;;;4959239;29;20034;-76
2022/06/13 02:57:38;;;;;;;5.32;4.82;;;13.30;99.90;;;;;;4942095;29;20514;-76
2022/06/13 03:00:19;;;;;;;5.45;4.93;;;13.30;99.90;;;;;;4959642;29;20038;-76
2022/06/13 03:03:12;;;;;;;6.20;5.00;;;13.20;99.90;;;;;;4959343;29;20090;-76
2022/06/13 03:05:46;;;;;;;5.85;4.25;;;13.20;99.90;;;;;;4942177;29;20503;-76
2022/06/13 03:08:36;;;;;;;5.53;4.95;;;13.20;99.90;;;;;;4941851;29;20063;-76
2022/06/13 03:11:34;;;;;;;7.15;5.05;;;13.20;99.90;;;;;;4941978;29;20410;-76
2022/06/13 03:14:03;;;;;;;10.57;5.05;;;13.20;99.90;;;;;;4941794;29;20100;-76
2022/06/13 03:16:47;;;;;;;6.38;5.45;;;13.20;99.90;;;;;;4959040;29;20027;-76
2022/06/13 03:19:19;;;;;;;7.22;4.90;;;13.20;99.90;;;;;;4958998;29;20038;-76
2022/06/13 03:21:49;;;;;;;6.85;5.07;;;13.20;99.90;;;;;;4941817;29;20555;-76
2022/06/13 03:24:28;;;;;;;6.25;5.38;;;13.20;99.90;;;;;;4942182;29;20027;-76
2022/06/13 03:27:00;;;;;;;6.30;5.10;;;13.20;99.90;;;;;;4938080;29;20056;-76
2022/06/13 03:29:47;;;;;;;7.57;5.25;;;13.20;99.90;;;;;;4939459;29;20063;-76
2022/06/13 03:32:20;;;;;;;7.07;5.35;;;13.30;99.90;;;;;;4939589;29;20515;-76
2022/06/13 03:34:54;;;;;;;8.32;4.70;;;13.30;99.90;;;;;;4938316;29;20031;-75
2022/06/13 03:37:34;;;;;;;10.18;5.57;;;13.30;99.90;;;;;;4939151;29;20059;-76
2022/06/13 03:40:22;;;;;;;5.72;4.93;;;13.30;99.90;;;;;;4939347;29;20020;-76
2022/06/13 03:42:57;;;;;;;6.65;4.85;;;13.40;99.90;;;;;;4939126;29;20483;-76
2022/06/13 03:45:34;;;;;;;6.15;4.78;;;13.50;99.90;;;;;;4939679;29;20031;-76
2022/06/13 03:48:13;;;;;;;6.82;4.47;;;13.50;99.90;;;;;;4939156;29;20148;-76
2022/06/13 03:50:47;;;;;;;6.70;4.85;;;13.60;99.90;;;;;;4937941;29;20472;-76
2022/06/13 03:53:41;;;;;;;4.50;4.10;;;13.60;99.90;;;;;;4937923;29;20032;-76
2022/06/13 03:56:27;;;;;;;7.68;5.45;;;13.70;99.90;;;;;;4939444;29;20421;-75
2022/06/13 03:59:04;;;;;;;4.70;4.10;;;13.70;99.90;;;;;;4937715;29;20091;-77
2022/06/13 04:01:38;;;;;;;7.63;5.13;;;13.80;99.90;;;;;;4939029;29;20027;-69
2022/06/13 04:04:03;;;;;;;6.03;4.88;;;13.80;99.90;;;;;;4939088;29;20041;-64
2022/06/13 04:06:39;;;;;;;5.43;4.07;;;13.90;99.90;;;;;;4938644;29;20031;-75
2022/06/13 04:09:18;;;;;;;6.30;3.70;;;14.00;99.90;;;;;;4939261;29;20048;-75
2022/06/13 04:12:17;;;;;;;5.60;4.40;;;14.10;99.90;;;;;;4938130;29;20031;-77
2022/06/13 04:14:54;;;;;;;5.22;3.95;;;14.10;99.90;;;;;;4937902;29;20170;-76
2022/06/13 04:17:48;;;;;;;4.63;4.20;;;14.10;99.90;;;;;;4938720;29;20036;-77
2022/06/13 04:20:40;;;;;;;6.80;4.25;;;14.20;99.90;;;;;;4901966;29;20043;-77
2022/06/13 04:23:16;;;;;;;8.25;3.92;;;14.20;99.90;;;;;;4937635;29;20031;-77
2022/06/13 04:26:15;;;;;;;5.05;3.65;;;14.30;99.90;;;;;;4946322;29;20101;-75
2022/06/13 04:28:43;;;;;;;;;;;14.40;99.90;;;;;;4958055;29;20034;-74
2022/06/13 04:31:10;;;;;;;5.17;3.97;;;14.50;99.90;;;;;;4957457;29;19946;-76
2022/06/13 04:33:45;;;;;;;7.03;4.40;;;14.60;99.90;;;;;;4957235;29;20033;-75
2022/06/13 04:36:14;;;;;;;9.70;4.00;;;14.70;99.90;;;;;;4957440;29;20023;-74
2022/06/13 04:38:44;;;;;;;4.20;3.80;;;14.80;99.90;;;;;;4940160;29;20476;-74
2022/06/13 04:41:12;;;;;;;3.88;3.53;;;14.90;99.90;;;;;;4957598;29;20039;-74
2022/06/13 04:43:42;;;;;;;7.30;3.90;;;15.00;99.90;;;;;;4940014;29;20034;-72
2022/06/13 04:46:13;;;;;;;3.95;3.50;;;15.10;99.90;;;;;;4940204;29;20031;-75
2022/06/13 04:48:40;;;;;;;7.28;3.85;;;15.20;99.90;;;;;;4957667;29;20039;-75
2022/06/13 04:51:10;;;;;;;3.70;3.35;;;15.30;99.90;;;;;;4957292;29;20027;-75
2022/06/13 04:53:44;;;;;;;5.25;3.45;;;15.40;99.90;;;;;;4957189;29;20034;-76
2022/06/13 04:56:10;;;;;;;4.20;3.88;;;15.50;99.90;;;;;;4957214;29;20128;-75
2022/06/13 04:58:38;;;;;;;3.50;3.20;;;15.70;99.90;;;;;;4939803;29;20483;-75
2022/06/13 05:01:30;;;;;;;8.67;3.53;;;15.70;99.90;;;;;;4957123;29;20224;-76
2022/06/13 05:03:58;;;;;;;4.20;3.85;;;15.80;99.90;;;;;;4956430;28;20027;-76
2022/06/13 05:06:52;;;;;;;3.33;3.03;;;15.80;99.90;;;;;;4956888;29;20032;-76
2022/06/13 05:09:30;;;;;;;3.13;2.92;;;15.90;99.90;;;;;;4956959;29;20031;-76
2022/06/13 05:12:04;;;;;;;2.53;2.33;;;16.00;99.90;;;;;;4956838;29;20411;-75
2022/06/13 05:14:32;;;;;;;4.97;2.83;;;16.10;99.90;;;;;;4956909;29;20023;-75
2022/06/13 05:17:16;;;;;;;4.88;3.10;;;16.20;99.90;;;;;;4956537;29;20031;-75
2022/06/13 05:19:48;;;;;;;5.57;3.13;;;16.30;99.90;;;;;;4956425;29;20067;-75
2022/06/13 05:22:26;;;;;;;4.57;3.22;;;16.40;99.90;;;;;;4928175;29;20020;-74
2022/06/13 05:25:08;;;;;;;5.88;3.53;;;16.40;99.90;;;;;;4919259;29;20441;-75
2022/06/13 05:27:33;;;;;;;3.85;3.47;;;16.40;99.90;;;;;;4920386;29;20079;-75
2022/06/13 05:29:59;;;;;;;3.97;3.58;;;16.40;99.90;;;;;;4920354;29;20028;-75
2022/06/13 05:32:25;;;;;;;8.82;3.47;;;16.40;99.90;;;;;;4937044;29;20468;-76
2022/06/13 05:34:52;;;;;;;8.05;3.15;;;16.40;99.90;;;;;;4920122;29;20032;-76
2022/06/13 05:37:18;;;;;;;7.38;3.03;;;16.50;99.90;;;;;;4937564;29;20027;-75
2022/06/13 05:39:45;;;;;;;4.55;3.00;;;16.60;99.90;;;;;;4919882;29;20032;-76
2022/06/13 05:42:15;;;;;;;6.07;3.05;;;16.70;99.90;;;;;;4919759;29;20027;-75
2022/06/13 05:44:43;;;;;;;5.45;3.00;;;16.90;99.90;;;;;;4919957;29;20475;-76
2022/06/13 05:47:16;;;;;;;6.00;3.65;;;17.10;99.90;;;;;;4936991;29;20042;-75
2022/06/13 05:49:42;;;;;;;4.05;3.63;;;17.20;99.90;;;;;;4920060;29;20356;-76
2022/06/13 05:52:07;;;;;;;5.38;3.00;;;17.30;99.90;;;;;;4919924;29;20028;-76
2022/06/13 05:54:33;;;;;;;3.70;3.15;;;17.40;99.90;;;;;;4936941;29;20024;-76
2022/06/13 05:56:58;;;;;;;7.43;2.80;;;17.50;99.90;;;;;;4936762;29;20032;-76
2022/06/13 05:59:24;;;;;;;3.88;3.45;;;17.60;99.90;;;;;;4936801;29;20122;-76
2022/06/13 06:01:50;;;;;;;3.85;2.55;;;17.70;99.90;;;;;;4919863;29;20422;-76
2022/06/13 06:04:15;;;;;;;3.90;2.65;;;17.70;99.90;;;;;;4919727;29;20028;-76
2022/06/13 06:06:41;;;;;;;3.47;2.60;;;17.70;99.90;;;;;;4936861;29;20032;-76
2022/06/13 06:09:07;;;;;;;3.85;3.25;;;17.70;99.90;;;;;;4937077;29;20039;-76
2022/06/13 06:11:33;;;;;;;3.28;2.65;;;17.70;99.90;;;;;;4936687;29;20028;-76
2022/06/13 06:13:58;;;;;;;5.13;2.92;;;17.70;99.90;;;;;;4935916;29;20036;-76
2022/06/13 06:16:26;;;;;;;3.35;2.47;;;17.70;99.90;;;;;;4937049;29;20028;-76
2022/06/13 06:18:53;;;;;;;4.90;2.65;;;17.70;99.90;;;;;;4919421;29;20500;-76
2022/06/13 06:21:18;;;;;;;6.20;2.97;;;17.80;99.90;;;;;;4936473;29;20040;-76
2022/06/13 06:23:44;;;;;;;2.75;2.55;;;17.80;99.90;;;;;;4936422;29;20028;-76
2022/06/13 06:26:20;;;;;;;3.15;2.88;;;17.90;99.90;;;;;;4936373;29;20172;-76
2022/06/13 06:28:46;;;;;;;2.97;2.47;;;18.00;99.90;;;;;;4936563;29;20031;-76
2022/06/13 06:31:12;;;;;;;3.05;2.85;;;18.00;99.90;;;;;;4936650;29;20032;-76
2022/06/13 06:33:37;;;;;;;3.20;2.88;;;18.10;99.90;;;;;;4936445;29;20020;-76
2022/06/13 06:36:03;;;;;;;4.65;3.45;;;18.10;99.90;;;;;;4936187;29;20042;-76
2022/06/13 06:38:29;;;;;;;2.97;2.78;;;18.10;99.90;;;;;;4936380;29;20043;-76
2022/06/13 06:40:55;;;;;;;3.80;2.70;;;18.10;99.90;;;;;;4936448;29;20055;-77
2022/06/13 06:43:21;;;;;;;5.15;2.92;;;18.10;99.90;;;;;;4936600;29;20027;-76
2022/06/13 06:45:47;;;;;;;3.70;3.40;;;18.10;99.90;;;;;;4936157;29;20038;-77
2022/06/13 06:48:18;;;;;;;3.15;2.50;;;18.10;99.90;;;;;;4936354;29;20035;-77
2022/06/13 06:50:46;;;;;;;3.13;2.83;;;18.20;99.90;;;;;;4919405;29;20024;-77
2022/06/13 06:53:12;;;;;;;4.55;3.08;;;18.30;99.90;;;;;;4936214;29;20024;-77
2022/06/13 07:00:57;;;;;;;8.15;3.08;;;18.60;99.90;;;;;;4936331;29;20117;-77
2022/06/13 07:03:23;;;;;;;4.20;3.10;;;18.70;99.90;;;;;;4936691;29;20094;-76
2022/06/13 07:05:51;;;;;;;3.85;2.90;;;18.80;99.90;;;;;;4919175;29;20056;-77
2022/06/13 07:08:17;;;;;;;7.30;2.92;;;18.90;99.90;;;;;;4936231;29;20028;-77
2022/06/13 07:10:47;;;;;;;4.15;3.28;;;19.00;99.90;;;;;;4935904;29;20054;-77
2022/06/13 07:13:14;;;;;;;3.10;2.83;;;19.00;99.90;;;;;;4919309;29;20042;-77
2022/06/13 07:15:40;;;;;;;5.22;2.90;;;19.00;99.90;;;;;;4919080;29;20032;-77
2022/06/13 07:18:06;;;;;;;4.75;2.85;;;19.00;99.90;;;;;;4936095;29;20039;-77
2022/06/13 07:20:32;;;;;;;3.60;2.90;;;19.10;99.90;;;;;;4936293;29;20066;-77
2022/06/13 07:22:57;;;;;;;4.70;2.97;;;19.00;99.90;;;;;;4936133;29;20063;-77
2022/06/13 07:25:26;;;;;;;2.85;2.65;;;19.00;99.90;;;;;;4936394;29;20099;-77
2022/06/13 07:27:52;;;;;;;8.02;3.45;;;19.10;99.90;;;;;;4939742;29;20506;-77
2022/06/13 07:30:21;;;;;;;3.72;2.83;;;19.20;99.90;;;;;;4939656;29;20032;-77
2022/06/13 07:32:47;;;;;;;6.75;3.17;;;19.30;99.90;;;;;;4939584;29;20032;-77
2022/06/13 07:35:16;;;;;;;3.60;3.33;;;19.30;99.90;;;;;;4922084;29;20040;-77
2022/06/13 07:40:27;;;;;;;3.47;3.10;;;19.20;99.90;;;;;;4939723;29;20118;-78
2022/06/13 07:42:57;;;;;;;6.25;3.08;;;19.20;99.90;;;;;;4939602;29;20062;-78
2022/06/13 07:45:25;;;;;;;3.40;2.95;;;19.20;99.90;;;;;;4939264;29;20023;-78
2022/06/13 07:47:52;;;;;;;3.08;2.88;;;19.30;99.90;;;;;;4922221;29;20035;-78
2022/06/13 07:50:21;;;;;;;3.58;2.88;;;19.30;99.90;;;;;;4939257;29;20103;-78
2022/06/13 07:52:51;;;;;;;3.58;3.25;;;19.30;99.90;;;;;;4938906;29;20023;-78
2022/06/13 07:55:18;;;;;;;4.95;2.78;;;19.40;99.90;;;;;;4939184;29;20472;-78
2022/06/13 07:57:45;;;;;;;4.50;3.22;;;19.50;99.90;;;;;;4921820;29;20043;-78
2022/06/13 08:00:33;;;;;;;6.32;2.90;;;19.70;99.90;;;;;;4938899;29;20381;-78
2022/06/13 08:03:01;;;;;;;3.90;2.92;;;19.90;99.90;;;;;;4921951;29;20036;-78
2022/06/13 08:05:28;;;;;;;5.22;2.45;;;20.00;99.90;;;;;;4939155;29;20511;-78
2022/06/13 08:07:53;;;;;;;3.08;2.88;;;20.00;99.90;;;;;;4938878;29;20030;-78
2022/06/13 08:10:19;;;;;;;4.20;2.88;;;20.00;99.90;;;;;;4938906;29;20024;-78
2022/06/13 08:12:45;;;;;;;2.58;2.38;;;20.20;99.90;;;;;;4938538;29;20066;-78
2022/06/13 08:15:13;;;;;;;2.75;2.53;;;20.50;99.90;;;;;;4938784;29;20035;-78
2022/06/13 08:17:39;;;;;;;7.00;2.85;;;20.60;99.90;;;;;;4938663;29;20046;-78
2022/06/13 08:20:07;;;;;;;2.58;2.10;;;21.10;99.90;;;;;;4921245;29;20079;-78
2022/06/13 08:22:39;;;;;;;2.65;2.45;;;21.20;99.90;;;;;;4938889;29;20114;-78
2022/06/13 08:25:05;;;;;;;4.47;2.28;;;21.30;99.90;;;;;;4921726;29;20070;-78
2022/06/13 08:27:31;;;;;;;3.20;2.63;;;21.60;99.90;;;;;;4938879;29;20463;-78
2022/06/13 08:29:56;;;;;;;3.15;2.80;;;21.70;99.90;;;;;;4938542;29;20020;-78
2022/06/13 08:32:22;;;;;;;4.13;2.42;;;21.60;99.90;;;;;;4938466;29;20034;-79
2022/06/13 08:34:48;;;;;;;2.58;2.38;;;21.90;99.90;;;;;;4938421;29;20162;-78
2022/06/13 08:37:13;;;;;;;2.67;2.22;;;22.60;99.90;;;;;;4920748;29;20067;-79
2022/06/13 08:39:39;;;;;;;2.80;2.60;;;22.80;99.90;;;;;;4938303;29;20460;-79
2022/06/13 08:42:17;;;;;;;2.75;2.55;;;22.70;99.90;;;;;;4938075;29;20032;-79
2022/06/13 08:44:55;;;;;;;2.60;2.40;;;22.90;99.90;;;;;;4938071;29;20030;-78
2022/06/13 08:47:43;;;;;;;4.00;2.55;;;22.80;99.90;;;;;;4921769;29;20028;-80
2022/06/13 08:50:24;;;;;;;3.75;2.40;;;22.80;99.90;;;;;;4938195;29;20084;-79
2022/06/13 08:52:50;;;;;;;6.28;2.35;;;22.90;99.90;;;;;;4938184;29;20106;-79
2022/06/13 08:55:30;;;;;;;2.22;2.13;;;23.50;99.90;;;;;;4938084;29;20592;-79
2022/06/13 08:58:05;;;;;;;5.57;2.58;;;23.70;99.90;;;;;;4937998;29;20059;-79
2022/06/13 09:00:33;;;;;;;4.15;2.40;;;23.80;99.90;;;;;;4920556;29;20055;-79
2022/06/13 09:03:12;;;;;;;2.67;2.30;;;23.60;99.90;;;;;;4937917;29;20028;-78
2022/06/13 09:05:47;;;;;;;2.70;2.10;;;23.70;99.90;;;;;;4920905;29;20536;-78
2022/06/13 09:08:25;;;;;;;2.80;2.60;;;24.00;99.90;;;;;;4938003;29;20028;-78
2022/06/13 09:11:00;;;;;;;1.90;1.80;;;24.10;99.90;;;;;;4920696;29;20468;-78
2022/06/13 09:13:51;;;;;;;2.40;1.80;;;24.00;99.90;;;;;;4938064;29;20364;-78
2022/06/13 09:16:36;;;;;;;2.38;2.17;;;24.00;99.90;;;;;;4937461;29;20028;-79
2022/06/13 09:19:18;;;;;;;2.33;2.15;;;23.80;99.90;;;;;;4937708;29;20046;-79
2022/06/13 09:21:56;;;;;;;1.90;1.80;;;24.00;99.90;;;;;;4937439;29;20473;-79
2022/06/13 09:24:35;;;;;;;2.27;2.00;;;24.60;99.90;;;;;;4937525;29;20070;-77
2022/06/13 09:27:23;;;;;;;2.13;1.50;;;25.20;98.50;;;;;;4937547;29;20090;-77
2022/06/13 09:30:05;;;;;;;1.90;1.73;;;25.30;96.90;;;;;;4920465;29;20042;-77
2022/06/13 09:32:38;;;;;;;1.42;1.40;;;25.50;96.40;;;;;;4937725;29;20032;-77
2022/06/13 09:35:10;;;;;;;1.90;1.52;;;25.70;95.00;;;;;;4920399;29;20491;-79
2022/06/13 09:37:44;;;;;;;1.60;1.50;;;26.20;93.00;;;;;;4937188;29;20036;-79
2022/06/13 09:40:14;;;;;;;1.38;1.30;;;26.60;91.60;;;;;;4937411;29;20036;-80
2022/06/13 09:43:04;;;;;;;1.30;1.27;;;26.70;87.70;;;;;;4937376;29;20396;-79
2022/06/13 09:45:56;;;;;;;1.50;1.40;;;26.60;86.40;;;;;;4920382;29;20083;-79
2022/06/13 09:48:56;;;;;;;1.70;1.15;;;26.70;88.00;;;;;;4919928;29;20032;-79
2022/06/13 09:51:30;;;;;;;3.72;1.23;;;27.10;84.40;;;;;;4920330;29;20435;-80
2022/06/13 09:54:08;;;;;;;1.02;0.90;;;27.00;84.20;;;;;;4937086;29;20050;-79
2022/06/13 09:56:57;;;;;;;1.45;1.15;;;26.90;82.80;;;;;;4937252;29;20028;-80
2022/06/13 09:59:25;;;;;;;2.60;1.00;;;27.00;83.20;;;;;;4920285;29;20138;-79
2022/06/13 10:02:09;;;;;;;2.50;1.02;;;27.20;82.50;;;;;;4936954;29;20032;-79
2022/06/13 10:04:48;;;;;;;1.65;0.88;;;27.60;77.60;;;;;;4937112;29;20127;-80
2022/06/13 10:07:19;;;;;;;4.07;0.98;;;27.60;77.50;;;;;;4919949;29;20114;-79
2022/06/13 10:10:01;;;;;;;2.17;1.13;;;28.10;75.60;;;;;;4936897;29;20082;-79
2022/06/13 10:12:33;;;;;;;1.50;0.73;;;27.60;73.50;;;;;;4937068;29;20050;-77
2022/06/13 10:14:58;;;;;;;1.63;0.80;;;26.90;75.00;;;;;;4920025;29;20577;-79
2022/06/13 10:17:24;;;;;;;1.05;0.98;;;26.90;74.70;;;;;;4936952;29;20031;-77
2022/06/13 10:19:54;;;;;;;1.95;0.80;;;27.00;76.10;;;;;;4936359;29;20151;-77
2022/06/13 10:22:42;;;;;;;4.05;1.00;;;27.20;75.60;;;;;;4919494;29;20122;-77
2022/06/13 10:25:08;;;;;;;;;;;26.80;76.40;;;;;;4907413;29;20143;-79
2022/06/13 10:27:52;;;;;;;1.17;0.80;;;26.30;78.80;;;;;;4919925;29;20401;-79
2022/06/13 10:30:31;;;;;;;7.18;1.00;;;26.30;78.80;;;;;;4936194;29;20464;-79
2022/06/13 10:33:32;;;;;;;3.60;1.00;;;26.50;80.40;;;;;;4936555;29;20098;-77
2022/06/13 10:36:22;;;;;;;2.08;1.10;;;26.50;78.60;;;;;;4931489;29;20067;-77
2022/06/13 10:38:47;;;;;;;1.75;1.00;;;26.90;77.90;;;;;;4922265;29;20054;-78
2022/06/13 10:41:13;;;;;;;0.90;0.80;;;27.10;77.60;;;;;;4919383;29;20027;-79
2022/06/13 10:43:42;;;;;;;1.33;0.88;;;27.30;78.70;;;;;;4919305;29;20036;-79
2022/06/13 10:46:11;;;;;;;1.67;0.85;;;28.00;76.40;;;;;;4936294;29;20032;-79
2022/06/13 10:48:51;;;;;;;1.05;0.90;;;28.10;73.80;;;;;;4936408;29;20584;-79
2022/06/13 10:51:17;;;;;;;2.20;0.70;;;28.00;72.00;;;;;;4919495;29;20066;-79
2022/06/13 10:53:51;;;;;;;1.40;0.90;;;27.70;71.20;;;;;;4919047;29;20068;-79
2022/06/13 10:56:24;;;;;;;1.33;0.70;;;27.80;73.70;;;;;;4919306;29;20094;-79
2022/06/13 10:58:55;;;;;;;1.70;0.63;;;28.10;70.00;;;;;;4935966;29;20040;-79
2022/06/13 11:01:29;;;;;;;1.50;0.82;;;28.30;71.40;;;;;;4937801;29;20588;-78
2022/06/13 11:04:06;;;;;;;0.60;0.60;;;28.50;68.50;;;;;;4923206;29;20027;-78
2022/06/13 11:06:53;;;;;;;3.30;0.98;;;27.90;67.50;;;;;;4940011;29;20028;-75
2022/06/13 11:09:33;;;;;;;1.25;0.80;;;27.80;70.50;;;;;;4940094;29;20031;-76
2022/06/13 11:12:03;;;;;;;1.17;0.68;;;27.90;70.10;;;;;;4939936;29;20087;-78
2022/06/13 11:23:01;;;;;;;3.22;0.70;;;29.50;64.00;;;;;;4939857;29;20034;-76
2022/06/13 11:25:34;;;;;;;0.93;0.65;;;29.40;63.80;;;;;;4939939;29;20084;-76
2022/06/13 11:28:13;;;;;;;0.50;0.50;;;30.20;61.60;;;;;;4939671;29;20040;-76
2022/06/13 11:30:50;;;;;;;1.05;0.50;;;31.40;58.10;;;;;;4922525;29;20051;-73
2022/06/13 11:33:27;;;;;;;1.13;0.60;;;31.20;56.60;;;;;;4922786;29;20428;-74
2022/06/13 11:36:21;;;;;;;2.45;0.75;;;31.30;54.90;;;;;;4939543;29;20032;-75
2022/06/13 11:38:52;;;;;;;1.67;0.70;;;31.30;54.80;;;;;;4939310;29;20031;-75
2022/06/13 11:41:44;;;;;;;1.95;0.80;;;31.10;54.70;;;;;;4922369;29;20241;-76
2022/06/13 11:44:14;;;;;;;1.02;0.70;;;31.30;55.00;;;;;;4918474;29;20476;-74
2022/06/13 11:46:42;;;;;;;0.52;0.52;;;31.00;55.10;;;;;;4939306;29;20038;-74
2022/06/13 11:49:14;;;;;;;0.60;0.60;;;31.40;55.00;;;;;;4939484;29;20035;-73
2022/06/13 11:51:41;;;;;;;2.05;0.60;;;31.80;54.60;;;;;;4939221;29;20032;-74
2022/06/13 11:54:29;;;;;;;1.00;0.70;;;31.80;52.60;;;;;;4939126;29;20032;-75
2022/06/13 11:57:20;;;;;;;0.77;0.70;;;31.90;52.40;;;;;;4939054;29;20055;-74
2022/06/13 12:00:15;;;;;;;0.98;0.68;;;31.60;52.90;;;;;;4938989;29;20067;-74
2022/06/13 12:02:50;;;;;;;2.60;0.65;;;31.50;53.80;;;;;;4938812;29;20031;-74
2022/06/13 12:05:15;;;;;;;1.50;0.65;;;31.00;55.40;;;;;;4938743;29;20024;-74
2022/06/13 12:07:55;;;;;;;1.13;0.75;;;31.60;54.00;;;;;;4921948;29;20436;-74
2022/06/13 12:10:25;;;;;;;1.48;0.60;;;31.00;52.70;;;;;;4938828;29;20452;-74
2022/06/13 12:12:51;;;;;;;0.57;0.57;;;30.70;54.10;;;;;;4937887;29;20032;-74
2022/06/13 12:15:18;;;;;;;2.35;0.90;;;30.40;55.10;;;;;;4938777;29;20027;-74
2022/06/13 12:18:26;;;;;;;0.60;0.60;;;30.90;54.90;;;;;;4938697;29;20028;-74
2022/06/13 12:21:09;;;;;;;;;;;31.30;53.60;;;;;;4827865;29;20086;-74
2022/06/13 12:23:48;;;;;;;1.48;0.65;;;31.00;53.60;;;;;;4842752;29;19913;-74
2022/06/13 12:26:26;;;;;;;1.75;0.50;;;30.10;55.20;;;;;;4842586;29;20133;-74
2022/06/13 12:29:12;;;;;;;5.73;0.90;;;29.70;55.00;;;;;;4842972;29;20114;-74
2022/06/13 12:31:42;;;;;;;1.75;1.25;;;29.60;56.20;;;;;;4842930;29;20281;-78
2022/06/13 12:34:55;;;;;;;1.13;0.80;;;28.30;59.30;;;;;;4827456;29;20037;-78
2022/06/13 12:37:26;;;;;;;3.08;1.45;;;27.60;68.60;;;;;;4788147;30;20063;-79
2022/06/13 12:40:12;;;;;;;4.07;2.10;;;26.20;98.30;;;;;;4788834;30;20043;-79
2022/06/13 12:42:53;;;;;;;3.22;1.85;;;24.10;99.90;;;;;;4788249;30;20108;-77
2022/06/13 12:45:22;;;;;;;5.55;1.73;;;22.10;99.90;;;;;;4788104;30;20078;-78
2022/06/13 12:48:23;;;;;;;2.85;1.42;;;21.20;99.90;;;;;;4787918;30;20040;-81
2022/06/13 12:50:52;;;;;;;3.90;1.27;;;20.80;99.90;;;;;;4796265;29;20105;-82
2022/06/13 12:53:20;;;;;;;;;;;21.30;99.90;;;;;;4842940;29;20034;-81
2022/06/13 12:56:06;;;;;;;2.05;1.40;;;21.60;99.90;;;;;;4842512;29;20246;-81
2022/06/13 12:58:44;;;;;;;5.65;1.88;;;21.90;99.90;;;;;;4842204;29;20057;-81
2022/06/13 13:01:15;;;;;;;2.15;1.40;;;22.80;99.90;;;;;;4842151;29;20073;-80
2022/06/13 13:03:48;;;;;;;1.42;1.33;;;23.50;99.90;;;;;;4826800;29;20029;-79
2022/06/13 13:06:32;;;;;;;2.53;1.20;;;24.60;99.90;;;;;;4842036;29;20170;-80
2022/06/13 13:09:16;;;;;;;1.17;1.05;;;25.40;99.90;;;;;;4930129;29;20054;-75
2022/06/13 13:11:42;;;;;;;1.05;0.73;;;26.60;99.90;;;;;;4937853;29;20094;-76
2022/06/13 13:14:16;;;;;;;1.95;0.90;;;27.20;99.90;;;;;;4937685;29;20106;-76
2022/06/13 13:17:00;;;;;;;0.88;0.88;;;27.70;99.90;;;;;;4937936;29;20031;-77
2022/06/13 13:19:34;;;;;;;1.80;1.13;;;27.90;99.90;;;;;;4937392;29;20040;-79
2022/06/13 13:22:00;;;;;;;3.13;1.08;;;28.60;99.90;;;;;;4920467;29;20428;-77
2022/06/13 13:24:36;;;;;;;0.88;0.88;;;28.90;98.60;;;;;;4937339;29;20028;-82
2022/06/13 13:27:09;;;;;;;1.98;1.10;;;29.20;95.30;;;;;;4937786;29;20135;-80
2022/06/13 13:29:53;;;;;;;2.03;0.77;;;29.20;94.80;;;;;;4920442;29;20036;-83
2022/06/13 13:32:21;;;;;;;1.85;0.80;;;28.80;91.20;;;;;;4920488;29;20031;-81
2022/06/13 13:35:17;;;;;;;1.77;1.05;;;28.70;93.00;;;;;;4937498;29;20106;-88
2022/06/13 13:37:50;;;;;;;0.73;0.70;;;28.40;90.60;;;;;;4937519;29;20038;-76
2022/06/13 13:40:19;;;;;;;0.95;0.88;;;27.20;93.60;;;;;;4937245;29;20024;-77
2022/06/13 13:43:05;;;;;;;0.85;0.85;;;27.00;97.00;;;;;;4920217;29;20028;-77
2022/06/13 13:45:40;;;;;;;0.85;0.85;;;27.20;96.10;;;;;;4937409;29;20063;-76